Time;durP1;ratioP1;P1;durP2;ratioP2;P2;SDS_P1;SDS_P2;PMS_P1;PMS_P2;Temp;Humidity;BMP_temperature;BMP_pressure;BME280_temperature;BME280_humidity;BME280_pressure;Samples;Min_cycle;Max_cycle;Signal;HPM_P1;HPM_P2
2023/09/23 00:01:12;;;;;;;10.07;1.30;;;;;;;;;;5034025;28;20274;-66
2023/09/23 00:03:38;;;;;;;5.13;1.37;;;;;;;;;;5036827;28;20025;-66
2023/09/23 00:06:03;;;;;;;6.85;1.65;;;;;;;;;;5036667;28;20702;-65
2023/09/23 00:08:29;;;;;;;3.83;1.60;;;;;;;;;;5036352;28;20033;-66
2023/09/23 00:10:54;;;;;;;5.32;1.67;;;;;;;;;;5036573;28;20044;-66
2023/09/23 00:13:21;;;;;;;5.32;1.33;;;;;;;;;;5036573;28;20041;-66
2023/09/23 00:15:46;;;;;;;4.68;1.73;;;;;;;;;;5036498;28;20025;-66
2023/09/23 00:18:17;;;;;;;4.85;1.73;;;;;;;;;;5036156;28;20036;-66
2023/09/23 00:20:42;;;;;;;3.08;1.50;;;;;;;;;;5036246;28;20017;-66
2023/09/23 00:23:07;;;;;;;5.13;1.58;;;;;;;;;;5036572;28;20009;-66
2023/09/23 00:25:36;;;;;;;5.10;1.40;;;;;;;;;;5036158;28;20492;-66
2023/09/23 00:28:02;;;;;;;2.38;1.60;;;;;;;;;;5036008;28;20078;-66
2023/09/23 00:30:27;;;;;;;4.28;1.55;;;;;;;;;;5036426;28;20092;-66
2023/09/23 00:32:52;;;;;;;4.80;1.38;;;;;;;;;;5036091;28;20056;-66
2023/09/23 00:35:18;;;;;;;3.93;1.67;;;;;;;;;;5036120;28;20158;-66
2023/09/23 00:37:45;;;;;;;7.25;1.65;;;;;;;;;;5035879;28;20485;-66
2023/09/23 00:40:16;;;;;;;5.05;1.60;;;;;;;;;;5036334;28;20021;-66
2023/09/23 00:42:42;;;;;;;5.77;1.53;;;;;;;;;;5036219;28;20026;-66
2023/09/23 00:45:07;;;;;;;2.85;1.67;;;;;;;;;;5035995;28;20025;-66
2023/09/23 00:47:33;;;;;;;6.88;1.50;;;;;;;;;;5035844;28;20044;-66
2023/09/23 00:49:59;;;;;;;5.13;1.63;;;;;;;;;;5035924;28;20421;-66
2023/09/23 00:52:24;;;;;;;9.30;1.30;;;;;;;;;;5035892;28;20060;-66
2023/09/23 00:54:51;;;;;;;2.67;1.27;;;;;;;;;;5036030;28;20037;-66
2023/09/23 00:57:17;;;;;;;7.32;1.65;;;;;;;;;;5035890;28;20021;-66
2023/09/23 00:59:43;;;;;;;8.45;1.90;;;;;;;;;;5035570;28;20416;-66
2023/09/23 01:02:09;;;;;;;5.80;1.58;;;;;;;;;;5035524;28;20072;-66
2023/09/23 01:04:34;;;;;;;6.70;1.88;;;;;;;;;;5035570;28;20028;-66
2023/09/23 01:07:02;;;;;;;5.97;1.90;;;;;;;;;;5035299;28;20112;-66
2023/09/23 01:09:29;;;;;;;4.85;1.80;;;;;;;;;;5035314;28;20470;-66
2023/09/23 01:11:55;;;;;;;6.53;1.65;;;;;;;;;;5035177;28;20048;-66
2023/09/23 01:14:23;;;;;;;4.13;1.90;;;;;;;;;;5034340;28;20025;-66
2023/09/23 01:16:49;;;;;;;7.38;1.83;;;;;;;;;;5035346;28;20029;-66
2023/09/23 01:19:17;;;;;;;6.93;1.95;;;;;;;;;;5035261;28;20527;-66
2023/09/23 01:21:42;;;;;;;3.78;1.63;;;;;;;;;;5035450;28;20461;-66
2023/09/23 01:24:07;;;;;;;8.10;1.70;;;;;;;;;;5035246;28;20028;-66
2023/09/23 01:26:34;;;;;;;4.93;1.30;;;;;;;;;;5035272;28;20763;-66
2023/09/23 01:29:00;;;;;;;4.10;1.50;;;;;;;;;;5034442;28;20101;-66
2023/09/23 01:31:29;;;;;;;2.75;1.58;;;;;;;;;;5035215;28;20363;-66
2023/09/23 01:33:55;;;;;;;3.60;1.63;;;;;;;;;;5035435;28;20040;-74
2023/09/23 01:36:20;;;;;;;7.40;1.42;;;;;;;;;;5035058;28;20021;-73
2023/09/23 01:38:46;;;;;;;4.93;1.43;;;;;;;;;;5034716;28;20381;-73
2023/09/23 01:41:11;;;;;;;5.65;1.50;;;;;;;;;;5035107;28;20341;-73
2023/09/23 01:43:36;;;;;;;4.93;1.80;;;;;;;;;;5034765;28;20022;-73
2023/09/23 01:46:04;;;;;;;3.60;1.70;;;;;;;;;;5034979;28;20014;-73
2023/09/23 01:48:29;;;;;;;4.00;1.40;;;;;;;;;;5034618;28;20358;-73
2023/09/23 01:50:56;;;;;;;6.72;1.85;;;;;;;;;;5034751;28;20021;-73
2023/09/23 01:53:24;;;;;;;4.95;1.77;;;;;;;;;;5034908;28;20469;-73
2023/09/23 01:55:49;;;;;;;5.53;1.80;;;;;;;;;;5034617;28;20032;-73
2023/09/23 01:58:14;;;;;;;5.53;1.63;;;;;;;;;;5034319;28;20021;-73
2023/09/23 02:00:39;;;;;;;9.43;1.50;;;;;;;;;;5034608;28;20265;-74
2023/09/23 02:03:05;;;;;;;2.20;1.35;;;;;;;;;;5034686;28;20018;-74
2023/09/23 02:05:30;;;;;;;3.28;1.30;;;;;;;;;;5034316;28;20421;-73
2023/09/23 02:07:55;;;;;;;6.28;2.28;;;;;;;;;;5034103;28;20112;-74
2023/09/23 02:10:23;;;;;;;4.32;1.65;;;;;;;;;;5034675;28;20045;-73
2023/09/23 02:12:48;;;;;;;4.78;1.58;;;;;;;;;;5034326;28;20021;-73
2023/09/23 02:15:14;;;;;;;2.90;1.40;;;;;;;;;;5034284;28;20017;-74
2023/09/23 02:17:40;;;;;;;13.85;1.80;;;;;;;;;;5034219;28;20428;-74
2023/09/23 02:22:42;;;;;;;4.50;1.88;;;;;;;;;;5034067;28;20470;-73
2023/09/23 02:25:11;;;;;;;5.00;1.85;;;;;;;;;;5033934;28;20076;-73
2023/09/23 02:27:37;;;;;;;4.38;1.75;;;;;;;;;;5033658;28;20025;-73
2023/09/23 02:30:02;;;;;;;2.53;1.50;;;;;;;;;;5033987;28;20018;-73
2023/09/23 02:32:27;;;;;;;3.72;1.80;;;;;;;;;;5033756;28;20274;-74
2023/09/23 02:34:52;;;;;;;4.97;1.83;;;;;;;;;;5034197;28;20029;-73
2023/09/23 02:37:18;;;;;;;11.30;2.17;;;;;;;;;;5033858;28;20024;-74
2023/09/23 02:39:43;;;;;;;3.50;1.90;;;;;;;;;;5033626;28;20385;-73
2023/09/23 02:42:10;;;;;;;4.65;1.80;;;;;;;;;;5033732;28;20365;-73
2023/09/23 02:44:35;;;;;;;9.95;1.90;;;;;;;;;;5034127;28;20025;-65
2023/09/23 02:47:00;;;;;;;4.77;2.10;;;;;;;;;;5033682;28;20024;-65
2023/09/23 02:49:26;;;;;;;5.60;2.00;;;;;;;;;;5033407;28;20040;-66
2023/09/23 02:51:51;;;;;;;4.88;1.60;;;;;;;;;;5033629;28;20029;-66
2023/09/23 02:54:17;;;;;;;6.53;2.10;;;;;;;;;;5033498;28;20044;-66
2023/09/23 02:56:42;;;;;;;3.67;1.30;;;;;;;;;;5033521;28;20025;-66
2023/09/23 02:59:21;;;;;;;4.45;1.73;;;;;;;;;;5032589;28;20025;-66
2023/09/23 03:01:51;;;;;;;3.20;1.65;;;;;;;;;;5032239;28;20049;-66
2023/09/23 03:04:16;;;;;;;7.88;1.77;;;;;;;;;;5033169;28;20025;-66
2023/09/23 03:06:56;;;;;;;8.63;1.92;;;;;;;;;;5033404;28;20462;-66
2023/09/23 03:09:28;;;;;;;6.38;1.70;;;;;;;;;;5033106;28;20028;-66
2023/09/23 03:11:56;;;;;;;11.77;1.98;;;;;;;;;;5033232;28;20063;-66
2023/09/23 03:14:40;;;;;;;3.58;1.30;;;;;;;;;;5033569;28;20033;-66
2023/09/23 03:17:07;;;;;;;7.35;1.33;;;;;;;;;;5033533;28;20021;-66
2023/09/23 03:19:32;;;;;;;3.97;1.27;;;;;;;;;;5032979;28;20485;-66
2023/09/23 03:21:58;;;;;;;4.38;1.73;;;;;;;;;;5033199;28;20028;-65
2023/09/23 03:24:26;;;;;;;3.28;1.30;;;;;;;;;;5033182;28;20017;-66
2023/09/23 03:26:56;;;;;;;6.03;1.73;;;;;;;;;;5033243;28;20017;-66
2023/09/23 03:29:22;;;;;;;12.07;2.05;;;;;;;;;;5032920;28;20060;-65
2023/09/23 03:31:48;;;;;;;1.77;1.25;;;;;;;;;;5033236;28;20050;-66
2023/09/23 03:34:14;;;;;;;5.18;1.67;;;;;;;;;;5033386;28;20030;-66
2023/09/23 03:36:40;;;;;;;3.33;1.60;;;;;;;;;;5035241;28;20465;-66
2023/09/23 03:39:05;;;;;;;5.15;1.33;;;;;;;;;;5036910;28;20376;-66
2023/09/23 03:41:31;;;;;;;9.98;1.75;;;;;;;;;;5037367;28;20104;-65
2023/09/23 03:43:56;;;;;;;8.68;1.55;;;;;;;;;;5037220;28;20469;-65
2023/09/23 03:46:22;;;;;;;7.85;1.63;;;;;;;;;;5037030;28;20017;-66
2023/09/23 03:48:47;;;;;;;7.80;1.90;;;;;;;;;;5036799;28;20017;-65
2023/09/23 03:51:15;;;;;;;4.68;1.90;;;;;;;;;;5037065;28;20099;-66
2023/09/23 03:53:42;;;;;;;4.93;1.88;;;;;;;;;;5037033;28;20147;-65
2023/09/23 03:56:07;;;;;;;4.68;1.92;;;;;;;;;;5036954;28;20033;-65
2023/09/23 03:58:32;;;;;;;6.53;1.80;;;;;;;;;;5036887;28;20025;-65
2023/09/23 04:01:05;;;;;;;6.60;1.90;;;;;;;;;;5036752;28;20377;-66
2023/09/23 04:03:34;;;;;;;;;;;;;;;;;;5037209;28;20021;-65
2023/09/23 04:05:59;;;;;;;1.77;1.33;;;;;;;;;;5036681;28;19912;-66
2023/09/23 04:08:24;;;;;;;5.50;2.10;;;;;;;;;;5036306;28;20037;-65
2023/09/23 04:10:50;;;;;;;7.78;1.75;;;;;;;;;;5036885;28;20032;-65
2023/09/23 04:13:15;;;;;;;6.88;2.22;;;;;;;;;;5036629;28;20049;-65
2023/09/23 04:15:41;;;;;;;5.57;2.00;;;;;;;;;;5036596;28;20022;-65
2023/09/23 04:18:06;;;;;;;7.45;1.98;;;;;;;;;;5036309;28;20021;-65
2023/09/23 04:20:32;;;;;;;8.37;1.77;;;;;;;;;;5036432;28;20025;-65
2023/09/23 04:22:57;;;;;;;4.55;1.50;;;;;;;;;;5036108;28;20275;-66
2023/09/23 04:25:22;;;;;;;6.53;1.90;;;;;;;;;;5036326;28;20033;-65
2023/09/23 04:27:49;;;;;;;5.38;1.77;;;;;;;;;;5036272;28;20278;-66
2023/09/23 04:30:15;;;;;;;5.82;1.92;;;;;;;;;;5036198;28;20009;-65
2023/09/23 04:32:40;;;;;;;10.48;1.70;;;;;;;;;;5036151;28;20545;-65
2023/09/23 04:35:07;;;;;;;5.57;2.00;;;;;;;;;;5036015;28;20056;-65
2023/09/23 04:37:36;;;;;;;7.50;3.75;;;;;;;;;;5036067;28;20021;-66
2023/09/23 04:40:05;;;;;;;9.70;2.10;;;;;;;;;;5036230;28;20032;-65
2023/09/23 04:42:30;;;;;;;5.25;1.90;;;;;;;;;;5035992;28;20388;-65
2023/09/23 04:44:56;;;;;;;10.07;2.27;;;;;;;;;;5035987;28;20025;-65
2023/09/23 04:47:22;;;;;;;3.83;1.60;;;;;;;;;;5035820;28;20021;-66
2023/09/23 04:49:48;;;;;;;2.38;1.52;;;;;;;;;;5035596;28;20056;-65
2023/09/23 04:52:15;;;;;;;10.20;2.25;;;;;;;;;;5035787;28;20029;-66
2023/09/23 04:54:40;;;;;;;3.70;1.75;;;;;;;;;;5035814;28;20025;-65
2023/09/23 04:57:06;;;;;;;3.85;1.65;;;;;;;;;;5036062;28;20104;-65
2023/09/23 04:59:32;;;;;;;4.20;1.73;;;;;;;;;;5035467;28;20025;-65
2023/09/23 05:01:59;;;;;;;4.40;1.70;;;;;;;;;;5035876;28;20075;-65
2023/09/23 05:04:24;;;;;;;4.88;1.83;;;;;;;;;;5035989;28;20083;-65
2023/09/23 05:06:50;;;;;;;4.17;2.10;;;;;;;;;;5035570;28;20495;-65
2023/09/23 05:09:16;;;;;;;5.70;2.28;;;;;;;;;;5035525;28;20032;-65
2023/09/23 05:11:41;;;;;;;5.22;1.98;;;;;;;;;;5035760;28;20376;-65
2023/09/23 05:14:07;;;;;;;4.53;1.65;;;;;;;;;;5035517;28;20202;-65
2023/09/23 05:16:32;;;;;;;5.35;1.90;;;;;;;;;;5035682;28;20087;-65
2023/09/23 05:18:57;;;;;;;4.90;1.83;;;;;;;;;;5035246;28;20561;-65
2023/09/23 05:21:22;;;;;;;5.27;1.60;;;;;;;;;;5035278;28;20773;-65
2023/09/23 05:23:49;;;;;;;6.20;1.73;;;;;;;;;;5035093;28;20020;-65
2023/09/23 05:26:16;;;;;;;4.78;1.90;;;;;;;;;;5035497;28;20025;-65
2023/09/23 05:28:41;;;;;;;6.28;2.10;;;;;;;;;;5035202;28;20020;-65
2023/09/23 05:31:06;;;;;;;4.43;1.80;;;;;;;;;;5035112;28;20021;-66
2023/09/23 05:33:31;;;;;;;2.93;1.20;;;;;;;;;;5034981;28;20103;-66
2023/09/23 05:35:57;;;;;;;1.97;1.50;;;;;;;;;;5035112;28;20603;-65
2023/09/23 05:38:23;;;;;;;6.30;1.73;;;;;;;;;;5016920;28;20022;-65
2023/09/23 05:40:49;;;;;;;9.90;1.88;;;;;;;;;;5033806;28;20024;-66
2023/09/23 05:43:14;;;;;;;3.88;1.98;;;;;;;;;;5035197;28;20475;-65
2023/09/23 05:45:39;;;;;;;16.43;2.33;;;;;;;;;;5035188;28;20052;-65
2023/09/23 05:48:05;;;;;;;7.43;2.30;;;;;;;;;;5034667;28;20310;-66
2023/09/23 05:50:31;;;;;;;7.88;1.92;;;;;;;;;;5035022;28;20021;-65
2023/09/23 05:52:57;;;;;;;9.35;2.28;;;;;;;;;;5034757;28;20571;-66
2023/09/23 05:55:22;;;;;;;10.48;2.30;;;;;;;;;;5034662;28;20025;-66
2023/09/23 05:57:49;;;;;;;5.00;2.30;;;;;;;;;;5034304;28;20385;-66
2023/09/23 06:00:17;;;;;;;8.60;2.20;;;;;;;;;;5034034;28;20025;-66
2023/09/23 06:02:45;;;;;;;4.38;1.95;;;;;;;;;;5034445;28;20373;-66
2023/09/23 06:05:10;;;;;;;4.93;1.55;;;;;;;;;;5034480;28;20088;-66
2023/09/23 06:07:35;;;;;;;3.22;1.83;;;;;;;;;;5034295;28;20063;-66
2023/09/23 06:10:00;;;;;;;7.65;1.77;;;;;;;;;;5034362;28;20043;-66
2023/09/23 06:12:29;;;;;;;5.13;1.80;;;;;;;;;;5034662;28;20029;-66
2023/09/23 06:14:55;;;;;;;4.45;1.48;;;;;;;;;;5034463;28;20489;-74
2023/09/23 06:17:20;;;;;;;5.63;1.98;;;;;;;;;;5034273;28;20029;-73
2023/09/23 06:19:45;;;;;;;2.85;1.55;;;;;;;;;;5033976;28;20033;-73
2023/09/23 06:22:11;;;;;;;4.20;1.65;;;;;;;;;;5034292;28;20505;-74
2023/09/23 06:24:36;;;;;;;6.33;1.93;;;;;;;;;;5032786;28;20032;-74
2023/09/23 06:27:01;;;;;;;9.50;1.80;;;;;;;;;;5033150;28;20033;-75
2023/09/23 06:29:27;;;;;;;4.03;1.60;;;;;;;;;;5032679;28;20481;-75
2023/09/23 06:31:54;;;;;;;5.20;1.40;;;;;;;;;;5032298;28;20306;-75
2023/09/23 06:34:19;;;;;;;5.68;1.80;;;;;;;;;;5033605;28;20025;-76
2023/09/23 06:36:44;;;;;;;7.63;1.83;;;;;;;;;;5033107;28;20028;-76
2023/09/23 06:39:09;;;;;;;9.87;1.50;;;;;;;;;;5033410;28;20365;-75
2023/09/23 06:41:35;;;;;;;2.40;1.40;;;;;;;;;;5033626;28;20018;-76
2023/09/23 06:44:00;;;;;;;5.07;1.88;;;;;;;;;;5032374;28;20392;-76
2023/09/23 06:46:25;;;;;;;3.25;1.40;;;;;;;;;;5033723;28;20024;-76
2023/09/23 06:48:51;;;;;;;3.95;1.27;;;;;;;;;;5033723;28;20059;-76
2023/09/23 06:51:16;;;;;;;5.87;0.97;;;;;;;;;;5033701;28;20021;-76
2023/09/23 06:53:42;;;;;;;2.47;1.13;;;;;;;;;;5033917;28;20017;-76
2023/09/23 06:56:07;;;;;;;4.45;1.05;;;;;;;;;;5033583;28;20425;-76
2023/09/23 06:58:33;;;;;;;2.87;1.20;;;;;;;;;;5033575;28;20021;-76
2023/09/23 07:00:58;;;;;;;3.77;0.97;;;;;;;;;;5033478;28;20025;-76
2023/09/23 07:03:23;;;;;;;8.23;1.30;;;;;;;;;;5033482;28;20020;-76
2023/09/23 07:05:48;;;;;;;7.40;1.50;;;;;;;;;;5033549;28;20017;-76
2023/09/23 07:08:14;;;;;;;6.90;1.73;;;;;;;;;;5033484;28;20469;-76
2023/09/23 07:10:39;;;;;;;5.03;1.40;;;;;;;;;;5032807;28;20029;-76
2023/09/23 07:13:05;;;;;;;2.92;1.17;;;;;;;;;;5033041;28;20013;-76
2023/09/23 07:15:34;;;;;;;3.65;0.80;;;;;;;;;;5032738;28;20055;-76
2023/09/23 07:17:59;;;;;;;4.13;1.00;;;;;;;;;;5032894;28;20045;-76
2023/09/23 07:20:26;;;;;;;2.57;1.03;;;;;;;;;;5032534;28;20516;-76
2023/09/23 07:22:51;;;;;;;5.30;1.15;;;;;;;;;;5032810;28;20053;-76
2023/09/23 07:25:16;;;;;;;9.60;1.20;;;;;;;;;;5032651;28;20053;-72
2023/09/23 07:27:42;;;;;;;2.57;1.00;;;;;;;;;;5032894;28;20100;-73
2023/09/23 07:30:07;;;;;;;3.85;1.30;;;;;;;;;;5032457;28;20380;-73
2023/09/23 07:32:32;;;;;;;3.45;1.23;;;;;;;;;;5032332;28;20052;-73
2023/09/23 07:34:58;;;;;;;3.03;1.20;;;;;;;;;;5032688;28;20037;-72
2023/09/23 07:37:23;;;;;;;2.67;0.87;;;;;;;;;;5032503;28;20013;-73
2023/09/23 07:39:48;;;;;;;5.13;1.20;;;;;;;;;;5032977;28;20262;-72
2023/09/23 07:42:13;;;;;;;6.32;1.40;;;;;;;;;;5032963;28;20087;-72
2023/09/23 07:44:39;;;;;;;1.80;0.90;;;;;;;;;;5032600;28;20531;-72
2023/09/23 07:47:04;;;;;;;3.10;1.10;;;;;;;;;;5032326;28;20687;-73
2023/09/23 07:49:29;;;;;;;4.27;1.10;;;;;;;;;;5032471;28;20020;-73
2023/09/23 07:51:56;;;;;;;2.57;1.10;;;;;;;;;;5032389;28;20034;-74
2023/09/23 07:54:21;;;;;;;2.90;1.15;;;;;;;;;;5032330;28;20271;-73
2023/09/23 07:56:46;;;;;;;4.60;1.23;;;;;;;;;;5014742;28;20112;-73
2023/09/23 07:59:11;;;;;;;5.37;1.57;;;;;;;;;;5032633;28;20057;-74
2023/09/23 08:01:37;;;;;;;4.43;1.20;;;;;;;;;;5032084;28;20452;-74
2023/09/23 08:04:03;;;;;;;2.42;1.10;;;;;;;;;;5032291;28;20513;-75
2023/09/23 08:06:28;;;;;;;3.17;1.10;;;;;;;;;;5032189;28;20421;-74
2023/09/23 08:08:53;;;;;;;2.93;0.93;;;;;;;;;;5032319;28;20025;-74
2023/09/23 08:11:18;;;;;;;6.77;1.80;;;;;;;;;;5032643;28;20267;-74
2023/09/23 08:13:44;;;;;;;5.97;1.40;;;;;;;;;;5015016;28;20354;-74
2023/09/23 08:16:09;;;;;;;2.93;1.37;;;;;;;;;;5032383;28;20469;-74
2023/09/23 08:18:34;;;;;;;6.77;1.13;;;;;;;;;;5032239;28;20030;-74
2023/09/23 08:20:59;;;;;;;4.07;1.10;;;;;;;;;;5032285;28;20025;-74
2023/09/23 08:23:25;;;;;;;1.20;0.70;;;;;;;;;;5035165;28;20014;-76
2023/09/23 08:25:51;;;;;;;4.28;1.17;;;;;;;;;;5035697;28;20096;-66
2023/09/23 08:28:16;;;;;;;3.05;1.08;;;;;;;;;;5035992;28;20104;-66
2023/09/23 08:30:43;;;;;;;4.07;1.00;;;;;;;;;;5035573;28;20017;-66
2023/09/23 08:33:09;;;;;;;7.25;0.90;;;;;;;;;;5035537;28;20685;-71
2023/09/23 08:35:34;;;;;;;3.42;1.10;;;;;;;;;;5035774;28;20026;-72
2023/09/23 08:37:59;;;;;;;7.30;1.10;;;;;;;;;;5035577;28;20037;-72
2023/09/23 08:40:24;;;;;;;3.80;1.23;;;;;;;;;;5035439;28;20341;-72
2023/09/23 08:42:51;;;;;;;4.90;0.93;;;;;;;;;;5035978;28;20481;-71
2023/09/23 08:45:17;;;;;;;10.40;1.60;;;;;;;;;;5036024;28;20021;-71
2023/09/23 08:47:43;;;;;;;5.85;1.10;;;;;;;;;;5035136;28;20040;-71
2023/09/23 08:50:09;;;;;;;4.57;1.20;;;;;;;;;;5035857;28;20029;-71
2023/09/23 08:52:34;;;;;;;2.10;1.00;;;;;;;;;;5035536;28;20394;-71
2023/09/23 08:55:00;;;;;;;2.17;1.00;;;;;;;;;;5035443;28;20501;-72
2023/09/23 08:57:25;;;;;;;3.65;1.20;;;;;;;;;;5035333;28;20021;-71
2023/09/23 08:59:51;;;;;;;4.13;1.40;;;;;;;;;;5035398;28;20068;-71
2023/09/23 09:02:16;;;;;;;7.13;1.95;;;;;;;;;;5035582;28;20049;-72
2023/09/23 09:04:42;;;;;;;3.45;1.27;;;;;;;;;;5035192;28;20014;-71
2023/09/23 09:07:07;;;;;;;2.67;0.97;;;;;;;;;;5034790;28;20037;-71
2023/09/23 09:09:32;;;;;;;3.87;1.30;;;;;;;;;;5035143;28;20259;-72
2023/09/23 09:11:58;;;;;;;2.97;0.80;;;;;;;;;;5035109;28;20095;-70
2023/09/23 09:14:24;;;;;;;3.10;1.20;;;;;;;;;;5035487;28;20021;-72
2023/09/23 09:16:49;;;;;;;4.90;1.48;;;;;;;;;;5035056;28;20040;-71
2023/09/23 09:19:15;;;;;;;3.95;1.02;;;;;;;;;;5034974;28;20436;-77
2023/09/23 09:21:41;;;;;;;8.15;1.20;;;;;;;;;;5034563;28;20489;-78
2023/09/23 09:24:07;;;;;;;7.20;1.25;;;;;;;;;;5016903;28;20025;-78
2023/09/23 09:26:32;;;;;;;4.47;1.13;;;;;;;;;;5034692;28;20466;-77
2023/09/23 09:28:57;;;;;;;6.73;1.43;;;;;;;;;;5034634;28;20381;-78
2023/09/23 09:31:24;;;;;;;10.57;1.10;;;;;;;;;;5034206;28;20321;-78
2023/09/23 09:33:50;;;;;;;4.43;1.10;;;;;;;;;;5033764;28;20278;-78
2023/09/23 09:36:18;;;;;;;7.20;1.20;;;;;;;;;;5034460;28;20018;-78
2023/09/23 09:38:44;;;;;;;4.32;0.90;;;;;;;;;;5034301;28;20420;-78
2023/09/23 09:41:11;;;;;;;3.27;1.10;;;;;;;;;;5034381;28;20025;-77
2023/09/23 09:43:36;;;;;;;3.25;0.90;;;;;;;;;;5034894;28;20029;-72
2023/09/23 09:46:08;;;;;;;3.90;0.80;;;;;;;;;;5034752;28;20014;-72
2023/09/23 09:48:34;;;;;;;4.07;0.88;;;;;;;;;;5034697;28;20377;-73
2023/09/23 09:50:59;;;;;;;2.22;0.80;;;;;;;;;;5034265;28;20025;-72
2023/09/23 09:53:25;;;;;;;3.97;0.90;;;;;;;;;;5034057;28;20465;-72
2023/09/23 09:55:50;;;;;;;7.40;1.25;;;;;;;;;;5033988;28;20095;-73
2023/09/23 09:58:16;;;;;;;2.53;0.77;;;;;;;;;;5034132;28;20462;-72
2023/09/23 10:00:42;;;;;;;5.97;1.13;;;;;;;;;;5034127;28;20029;-72
2023/09/23 10:03:11;;;;;;;4.10;1.58;;;;;;;;;;5033978;28;20087;-72
2023/09/23 10:05:46;;;;;;;2.63;1.10;;;;;;;;;;5034430;28;20022;-72
2023/09/23 10:08:15;;;;;;;5.72;0.95;;;;;;;;;;5034224;28;20401;-71
2023/09/23 10:10:46;;;;;;;1.65;0.70;;;;;;;;;;5033974;28;20041;-72
2023/09/23 10:13:12;;;;;;;4.38;1.10;;;;;;;;;;5034130;28;20029;-71
2023/09/23 10:15:39;;;;;;;5.07;1.23;;;;;;;;;;5034117;28;20022;-72
2023/09/23 10:18:11;;;;;;;5.22;0.88;;;;;;;;;;5034327;28;20412;-72
2023/09/23 10:20:39;;;;;;;5.72;1.13;;;;;;;;;;5033741;28;20021;-72
2023/09/23 10:23:06;;;;;;;6.05;1.23;;;;;;;;;;5033471;28;20029;-72
2023/09/23 10:25:37;;;;;;;4.05;1.08;;;;;;;;;;5033772;28;20021;-72
2023/09/23 10:28:04;;;;;;;8.05;1.10;;;;;;;;;;5033495;28;20033;-71
2023/09/23 10:30:29;;;;;;;5.80;1.00;;;;;;;;;;5033267;28;20025;-72
2023/09/23 10:32:54;;;;;;;4.27;1.00;;;;;;;;;;5033174;28;20060;-72
2023/09/23 10:35:23;;;;;;;6.97;1.30;;;;;;;;;;5033871;28;20344;-72
2023/09/23 10:37:48;;;;;;;6.32;1.00;;;;;;;;;;5033517;28;20485;-72
2023/09/23 10:40:13;;;;;;;2.97;0.70;;;;;;;;;;5032464;28;20020;-77
2023/09/23 10:42:41;;;;;;;12.32;1.20;;;;;;;;;;5032522;28;20029;-77
2023/09/23 10:45:06;;;;;;;4.20;0.85;;;;;;;;;;5042710;28;20032;-73
2023/09/23 10:47:32;;;;;;;3.35;1.02;;;;;;;;;;5033874;28;20114;-73
2023/09/23 10:49:57;;;;;;;3.77;1.00;;;;;;;;;;5033234;28;20017;-73
2023/09/23 10:52:22;;;;;;;7.13;1.37;;;;;;;;;;5032993;28;20362;-73
2023/09/23 10:54:47;;;;;;;4.87;1.03;;;;;;;;;;5033094;28;20013;-73
2023/09/23 10:57:13;;;;;;;3.50;1.00;;;;;;;;;;5033230;28;20028;-73
2023/09/23 10:59:39;;;;;;;4.63;1.10;;;;;;;;;;5015586;28;20048;-73
2023/09/23 11:02:05;;;;;;;5.60;1.15;;;;;;;;;;5033034;28;20025;-73
2023/09/23 11:04:30;;;;;;;6.45;1.00;;;;;;;;;;5032955;28;20022;-73
2023/09/23 11:06:56;;;;;;;6.05;1.10;;;;;;;;;;5032875;28;20436;-73
2023/09/23 11:09:22;;;;;;;4.65;1.27;;;;;;;;;;5032804;28;20492;-73
2023/09/23 11:11:47;;;;;;;7.80;1.10;;;;;;;;;;5033274;28;20461;-73
2023/09/23 11:14:13;;;;;;;6.07;1.23;;;;;;;;;;5032689;28;20022;-73
2023/09/23 11:16:41;;;;;;;4.05;1.23;;;;;;;;;;5033303;28;20020;-73
2023/09/23 11:19:07;;;;;;;5.82;1.17;;;;;;;;;;5033392;28;20064;-73
2023/09/23 11:21:40;;;;;;;4.53;1.35;;;;;;;;;;5032891;28;20426;-73
2023/09/23 11:24:06;;;;;;;7.95;0.98;;;;;;;;;;5015318;28;20083;-73
2023/09/23 11:26:31;;;;;;;5.05;1.38;;;;;;;;;;5032430;28;20033;-73
2023/09/23 11:28:56;;;;;;;3.47;1.20;;;;;;;;;;5032907;28;20056;-73
2023/09/23 11:31:22;;;;;;;5.35;1.25;;;;;;;;;;5032400;28;20017;-73
2023/09/23 11:33:47;;;;;;;2.93;0.93;;;;;;;;;;5032359;28;20029;-73
2023/09/23 11:36:12;;;;;;;4.07;1.00;;;;;;;;;;5032775;28;20017;-73
2023/09/23 11:38:40;;;;;;;4.33;1.10;;;;;;;;;;5032813;28;20033;-73
2023/09/23 11:41:05;;;;;;;5.38;1.17;;;;;;;;;;5032472;28;20305;-73
2023/09/23 11:43:30;;;;;;;3.33;0.87;;;;;;;;;;5032240;28;20091;-73
2023/09/23 11:45:55;;;;;;;2.20;0.80;;;;;;;;;;5032642;28;20103;-73
2023/09/23 11:48:20;;;;;;;3.20;0.97;;;;;;;;;;5032984;28;20028;-73
2023/09/23 11:50:46;;;;;;;10.60;1.23;;;;;;;;;;5032460;28;20033;-73
2023/09/23 11:53:13;;;;;;;4.05;1.13;;;;;;;;;;5032395;28;20017;-73
2023/09/23 11:55:38;;;;;;;7.53;1.33;;;;;;;;;;5032850;28;20021;-73
2023/09/23 11:58:03;;;;;;;2.80;1.07;;;;;;;;;;5034823;28;20371;-73
2023/09/23 12:00:29;;;;;;;4.70;1.10;;;;;;;;;;5036803;28;20273;-73
2023/09/23 12:02:54;;;;;;;6.40;1.30;;;;;;;;;;5036371;28;20500;-77
2023/09/23 12:05:20;;;;;;;6.82;0.98;;;;;;;;;;5036337;28;20067;-74
2023/09/23 12:07:46;;;;;;;7.88;1.75;;;;;;;;;;5036669;28;20026;-74
2023/09/23 12:10:15;;;;;;;7.18;1.45;;;;;;;;;;5035974;28;20025;-74
2023/09/23 12:12:42;;;;;;;3.53;1.10;;;;;;;;;;5029435;28;20017;-74
2023/09/23 12:15:08;;;;;;;5.85;1.38;;;;;;;;;;5035364;28;20032;-76
2023/09/23 12:17:34;;;;;;;8.65;1.40;;;;;;;;;;5018489;28;20086;-74
2023/09/23 12:19:59;;;;;;;4.57;1.30;;;;;;;;;;5036222;28;20100;-74
2023/09/23 12:22:24;;;;;;;8.47;1.57;;;;;;;;;;5035943;28;20477;-74
2023/09/23 12:24:50;;;;;;;4.10;1.33;;;;;;;;;;5035839;28;20017;-74
2023/09/23 12:27:15;;;;;;;4.90;1.38;;;;;;;;;;5035790;28;20025;-74
2023/09/23 12:29:40;;;;;;;8.38;1.80;;;;;;;;;;5035670;28;20021;-75
2023/09/23 12:32:06;;;;;;;5.90;1.50;;;;;;;;;;5017798;28;20497;-73
2023/09/23 12:34:31;;;;;;;7.45;1.95;;;;;;;;;;5035960;28;20029;-74
2023/09/23 12:36:57;;;;;;;5.97;2.07;;;;;;;;;;5035832;28;20373;-74
2023/09/23 12:39:22;;;;;;;6.07;1.55;;;;;;;;;;5035405;28;20676;-74
2023/09/23 12:41:48;;;;;;;2.33;1.20;;;;;;;;;;5035524;28;20030;-74
2023/09/23 12:44:13;;;;;;;10.18;1.90;;;;;;;;;;5035211;28;20024;-74
2023/09/23 12:46:38;;;;;;;6.13;1.77;;;;;;;;;;5035585;28;20082;-74
2023/09/23 12:49:04;;;;;;;5.57;1.13;;;;;;;;;;5035941;28;20028;-74
2023/09/23 12:51:29;;;;;;;9.23;1.65;;;;;;;;;;5036010;28;20030;-74
2023/09/23 12:53:54;;;;;;;8.77;1.37;;;;;;;;;;5035199;28;20147;-74
2023/09/23 12:56:21;;;;;;;4.30;1.38;;;;;;;;;;5035502;28;20761;-74
2023/09/23 12:58:46;;;;;;;8.55;1.45;;;;;;;;;;5035528;28;20126;-74
2023/09/23 13:01:12;;;;;;;11.93;1.45;;;;;;;;;;5035083;28;20128;-74
2023/09/23 13:03:37;;;;;;;3.25;1.38;;;;;;;;;;5034248;28;20484;-74
2023/09/23 13:06:03;;;;;;;8.07;1.47;;;;;;;;;;5034581;28;20096;-74
2023/09/23 13:08:28;;;;;;;4.23;1.40;;;;;;;;;;5035223;28;20096;-74
2023/09/23 13:10:53;;;;;;;7.10;1.33;;;;;;;;;;5031829;28;20374;-75
2023/09/23 13:13:19;;;;;;;7.13;1.80;;;;;;;;;;5025838;28;20021;-75
2023/09/23 13:15:44;;;;;;;6.93;1.67;;;;;;;;;;5034147;28;20032;-74
2023/09/23 13:18:09;;;;;;;5.10;1.37;;;;;;;;;;5034881;28;20592;-74
2023/09/23 13:20:34;;;;;;;6.47;1.50;;;;;;;;;;5035292;28;20507;-74
2023/09/23 13:23:00;;;;;;;7.20;1.67;;;;;;;;;;5014556;28;20033;-75
2023/09/23 13:25:25;;;;;;;3.97;1.13;;;;;;;;;;5034558;28;20022;-75
2023/09/23 13:27:51;;;;;;;6.80;1.60;;;;;;;;;;5033967;28;20259;-75
2023/09/23 13:30:18;;;;;;;7.43;1.80;;;;;;;;;;5034673;28;20029;-75
2023/09/23 13:32:43;;;;;;;7.05;1.50;;;;;;;;;;5034321;28;20054;-75
2023/09/23 13:35:09;;;;;;;7.63;1.45;;;;;;;;;;5034156;28;20032;-74
2023/09/23 13:37:35;;;;;;;3.72;1.42;;;;;;;;;;5034401;28;20013;-74
2023/09/23 13:40:01;;;;;;;4.13;1.30;;;;;;;;;;5034312;28;20060;-75
2023/09/23 13:42:26;;;;;;;14.50;1.25;;;;;;;;;;5033610;28;20421;-75
2023/09/23 13:44:51;;;;;;;3.78;1.00;;;;;;;;;;5016299;28;20029;-75
2023/09/23 13:47:17;;;;;;;4.20;0.90;;;;;;;;;;5034078;28;20022;-75
2023/09/23 13:49:42;;;;;;;6.50;1.10;;;;;;;;;;5034672;28;20079;-75
2023/09/23 13:52:07;;;;;;;4.60;0.82;;;;;;;;;;5034230;28;20056;-75
2023/09/23 13:54:33;;;;;;;3.87;1.07;;;;;;;;;;5034249;28;20076;-75
2023/09/23 13:56:58;;;;;;;7.53;1.07;;;;;;;;;;5033123;28;20025;-74
2023/09/23 13:59:23;;;;;;;6.13;1.13;;;;;;;;;;5034465;28;20083;-75
2023/09/23 14:01:48;;;;;;;6.30;1.07;;;;;;;;;;5033794;28;20271;-75
2023/09/23 14:04:13;;;;;;;4.03;1.10;;;;;;;;;;5033782;28;20482;-74
2023/09/23 14:06:39;;;;;;;8.23;1.17;;;;;;;;;;5034090;28;20849;-74
2023/09/23 14:09:04;;;;;;;5.28;1.73;;;;;;;;;;5033821;28;20019;-74
2023/09/23 14:11:30;;;;;;;4.70;1.60;;;;;;;;;;5033031;28;20022;-74
2023/09/23 14:13:56;;;;;;;5.25;1.10;;;;;;;;;;5033434;28;20057;-75
2023/09/23 14:16:22;;;;;;;4.35;0.93;;;;;;;;;;5033703;28;20044;-73
2023/09/23 14:18:47;;;;;;;4.15;0.90;;;;;;;;;;5033689;28;20025;-75
2023/09/23 14:21:12;;;;;;;2.35;0.80;;;;;;;;;;5033586;28;20028;-75
2023/09/23 14:23:38;;;;;;;2.53;1.00;;;;;;;;;;5016049;28;20057;-75
2023/09/23 14:26:03;;;;;;;2.72;1.13;;;;;;;;;;5014818;28;20277;-74
2023/09/23 14:28:29;;;;;;;5.22;0.80;;;;;;;;;;5033257;28;20550;-74
2023/09/23 14:30:54;;;;;;;7.97;1.13;;;;;;;;;;5033097;28;20555;-74
2023/09/23 14:33:19;;;;;;;2.60;0.70;;;;;;;;;;5033321;28;20497;-74
2023/09/23 14:35:45;;;;;;;2.03;0.80;;;;;;;;;;5033024;28;20029;-74
2023/09/23 14:38:10;;;;;;;3.57;0.80;;;;;;;;;;5033393;28;20052;-74